sensor_id;sensor_type;location;lat;lon;timestamp;P1;durP1;ratioP1;P2;durP2;ratioP2
40537;SDS011;27925;41.874;12.526;2024-02-21T00:01:50;10.50;;;4.95;;
40537;SDS011;27925;41.874;12.526;2024-02-21T00:04:15;8.77;;;5.28;;
40537;SDS011;27925;41.874;12.526;2024-02-21T00:06:41;9.75;;;5.07;;
40537;SDS011;27925;41.874;12.526;2024-02-21T00:09:07;9.43;;;5.15;;
40537;SDS011;27925;41.874;12.526;2024-02-21T00:11:34;7.75;;;4.90;;
40537;SDS011;27925;41.874;12.526;2024-02-21T00:14:00;20.70;;;5.80;;
40537;SDS011;27925;41.874;12.526;2024-02-21T00:16:26;10.10;;;5.47;;
40537;SDS011;27925;41.874;12.526;2024-02-21T00:18:51;15.57;;;5.15;;
40537;SDS011;27925;41.874;12.526;2024-02-21T00:21:17;11.15;;;5.40;;
40537;SDS011;27925;41.874;12.526;2024-02-21T00:23:46;9.60;;;5.57;;
40537;SDS011;27925;41.874;12.526;2024-02-21T00:26:12;8.20;;;5.55;;
40537;SDS011;27925;41.874;12.526;2024-02-21T00:28:41;9.63;;;5.97;;
40537;SDS011;27925;41.874;12.526;2024-02-21T00:31:06;9.82;;;6.13;;
40537;SDS011;27925;41.874;12.526;2024-02-21T00:33:32;11.88;;;6.60;;
40537;SDS011;27925;41.874;12.526;2024-02-21T00:35:58;11.23;;;6.82;;
40537;SDS011;27925;41.874;12.526;2024-02-21T00:38:23;20.05;;;6.38;;
40537;SDS011;27925;41.874;12.526;2024-02-21T00:40:49;10.75;;;6.40;;
40537;SDS011;27925;41.874;12.526;2024-02-21T00:43:15;9.27;;;6.18;;
40537;SDS011;27925;41.874;12.526;2024-02-21T00:45:40;10.52;;;6.40;;
40537;SDS011;27925;41.874;12.526;2024-02-21T00:48:07;10.80;;;6.22;;
40537;SDS011;27925;41.874;12.526;2024-02-21T00:50:32;10.20;;;6.47;;
40537;SDS011;27925;41.874;12.526;2024-02-21T00:52:58;9.93;;;6.22;;
40537;SDS011;27925;41.874;12.526;2024-02-21T00:55:24;10.75;;;6.30;;
40537;SDS011;27925;41.874;12.526;2024-02-21T00:57:49;9.98;;;6.03;;
40537;SDS011;27925;41.874;12.526;2024-02-21T01:00:15;9.27;;;5.90;;
40537;SDS011;27925;41.874;12.526;2024-02-21T01:02:41;11.30;;;6.45;;
40537;SDS011;27925;41.874;12.526;2024-02-21T01:05:07;13.45;;;9.85;;
40537;SDS011;27925;41.874;12.526;2024-02-21T01:07:33;23.77;;;18.08;;
40537;SDS011;27925;41.874;12.526;2024-02-21T01:09:58;28.33;;;20.95;;
40537;SDS011;27925;41.874;12.526;2024-02-21T01:12:24;37.15;;;25.17;;
40537;SDS011;27925;41.874;12.526;2024-02-21T01:14:50;36.05;;;26.15;;
40537;SDS011;27925;41.874;12.526;2024-02-21T01:17:15;46.58;;;29.02;;
40537;SDS011;27925;41.874;12.526;2024-02-21T01:19:41;62.97;;;38.95;;
40537;SDS011;27925;41.874;12.526;2024-02-21T01:22:07;74.65;;;46.72;;
40537;SDS011;27925;41.874;12.526;2024-02-21T01:24:33;95.82;;;58.85;;
40537;SDS011;27925;41.874;12.526;2024-02-21T01:26:58;129.27;;;73.32;;
40537;SDS011;27925;41.874;12.526;2024-02-21T01:29:24;90.63;;;51.47;;
40537;SDS011;27925;41.874;12.526;2024-02-21T01:31:50;70.53;;;37.35;;
40537;SDS011;27925;41.874;12.526;2024-02-21T01:34:15;30.95;;;19.17;;
40537;SDS011;27925;41.874;12.526;2024-02-21T01:36:41;21.67;;;12.65;;
40537;SDS011;27925;41.874;12.526;2024-02-21T01:39:07;14.45;;;9.93;;
40537;SDS011;27925;41.874;12.526;2024-02-21T01:41:33;16.15;;;7.82;;
40537;SDS011;27925;41.874;12.526;2024-02-21T01:43:58;10.98;;;6.75;;
40537;SDS011;27925;41.874;12.526;2024-02-21T01:46:24;9.75;;;6.15;;
40537;SDS011;27925;41.874;12.526;2024-02-21T01:48:55;8.63;;;5.72;;
40537;SDS011;27925;41.874;12.526;2024-02-21T01:51:21;8.07;;;5.07;;
40537;SDS011;27925;41.874;12.526;2024-02-21T01:53:48;8.90;;;5.32;;
40537;SDS011;27925;41.874;12.526;2024-02-21T01:56:17;7.93;;;4.90;;
40537;SDS011;27925;41.874;12.526;2024-02-21T01:58:42;9.13;;;4.97;;
40537;SDS011;27925;41.874;12.526;2024-02-21T02:01:09;7.43;;;4.40;;
40537;SDS011;27925;41.874;12.526;2024-02-21T02:03:36;7.93;;;4.38;;
40537;SDS011;27925;41.874;12.526;2024-02-21T02:06:02;7.13;;;4.57;;
40537;SDS011;27925;41.874;12.526;2024-02-21T02:08:29;6.90;;;4.00;;
40537;SDS011;27925;41.874;12.526;2024-02-21T02:10:56;7.55;;;4.28;;
40537;SDS011;27925;41.874;12.526;2024-02-21T02:13:22;10.57;;;4.80;;
40537;SDS011;27925;41.874;12.526;2024-02-21T02:15:48;7.47;;;4.50;;
40537;SDS011;27925;41.874;12.526;2024-02-21T02:18:16;6.82;;;4.20;;
40537;SDS011;27925;41.874;12.526;2024-02-21T02:20:46;6.78;;;3.78;;
40537;SDS011;27925;41.874;12.526;2024-02-21T02:23:18;6.85;;;4.18;;
40537;SDS011;27925;41.874;12.526;2024-02-21T02:25:43;5.47;;;3.60;;
40537;SDS011;27925;41.874;12.526;2024-02-21T02:28:14;6.85;;;3.83;;
40537;SDS011;27925;41.874;12.526;2024-02-21T02:30:40;5.25;;;3.28;;
40537;SDS011;27925;41.874;12.526;2024-02-21T02:33:06;6.18;;;3.90;;
40537;SDS011;27925;41.874;12.526;2024-02-21T02:35:32;6.07;;;3.90;;
40537;SDS011;27925;41.874;12.526;2024-02-21T02:37:57;5.80;;;3.25;;
40537;SDS011;27925;41.874;12.526;2024-02-21T02:40:23;5.70;;;3.30;;
40537;SDS011;27925;41.874;12.526;2024-02-21T02:42:50;5.63;;;3.40;;
40537;SDS011;27925;41.874;12.526;2024-02-21T02:45:16;8.27;;;3.40;;
40537;SDS011;27925;41.874;12.526;2024-02-21T02:47:43;5.75;;;3.40;;
40537;SDS011;27925;41.874;12.526;2024-02-21T02:50:11;5.65;;;3.25;;
40537;SDS011;27925;41.874;12.526;2024-02-21T02:52:37;6.43;;;3.28;;
40537;SDS011;27925;41.874;12.526;2024-02-21T02:55:03;5.88;;;3.38;;
40537;SDS011;27925;41.874;12.526;2024-02-21T02:57:30;5.55;;;3.13;;
40537;SDS011;27925;41.874;12.526;2024-02-21T02:59:55;7.72;;;3.20;;
40537;SDS011;27925;41.874;12.526;2024-02-21T03:02:21;5.97;;;3.22;;
40537;SDS011;27925;41.874;12.526;2024-02-21T03:04:47;5.30;;;3.17;;
40537;SDS011;27925;41.874;12.526;2024-02-21T03:07:13;7.32;;;3.15;;
40537;SDS011;27925;41.874;12.526;2024-02-21T03:09:40;5.28;;;2.85;;
40537;SDS011;27925;41.874;12.526;2024-02-21T03:12:07;5.68;;;2.92;;
40537;SDS011;27925;41.874;12.526;2024-02-21T03:14:33;6.57;;;3.17;;
40537;SDS011;27925;41.874;12.526;2024-02-21T03:17:00;4.72;;;2.83;;
40537;SDS011;27925;41.874;12.526;2024-02-21T03:19:26;4.68;;;2.80;;
40537;SDS011;27925;41.874;12.526;2024-02-21T03:21:52;6.25;;;3.13;;
40537;SDS011;27925;41.874;12.526;2024-02-21T03:24:18;5.60;;;2.97;;
40537;SDS011;27925;41.874;12.526;2024-02-21T03:26:44;5.13;;;2.90;;
40537;SDS011;27925;41.874;12.526;2024-02-21T03:29:12;5.03;;;3.30;;
40537;SDS011;27925;41.874;12.526;2024-02-21T03:31:39;6.53;;;3.28;;
40537;SDS011;27925;41.874;12.526;2024-02-21T03:34:05;5.00;;;2.92;;
40537;SDS011;27925;41.874;12.526;2024-02-21T03:36:30;6.05;;;2.85;;
40537;SDS011;27925;41.874;12.526;2024-02-21T03:38:56;6.95;;;3.83;;
40537;SDS011;27925;41.874;12.526;2024-02-21T03:41:22;6.35;;;3.53;;
40537;SDS011;27925;41.874;12.526;2024-02-21T03:43:48;6.90;;;3.65;;
40537;SDS011;27925;41.874;12.526;2024-02-21T03:46:14;7.07;;;3.05;;
40537;SDS011;27925;41.874;12.526;2024-02-21T03:48:40;6.47;;;3.53;;
40537;SDS011;27925;41.874;12.526;2024-02-21T03:51:06;5.38;;;3.15;;
40537;SDS011;27925;41.874;12.526;2024-02-21T03:53:32;6.55;;;3.10;;
40537;SDS011;27925;41.874;12.526;2024-02-21T03:56:00;6.75;;;3.38;;
40537;SDS011;27925;41.874;12.526;2024-02-21T03:58:28;5.95;;;3.05;;
40537;SDS011;27925;41.874;12.526;2024-02-21T04:00:59;6.03;;;3.75;;
40537;SDS011;27925;41.874;12.526;2024-02-21T04:03:26;5.70;;;3.47;;
40537;SDS011;27925;41.874;12.526;2024-02-21T04:05:52;6.57;;;3.10;;
40537;SDS011;27925;41.874;12.526;2024-02-21T04:08:18;5.55;;;3.40;;
40537;SDS011;27925;41.874;12.526;2024-02-21T04:10:43;6.75;;;3.65;;
40537;SDS011;27925;41.874;12.526;2024-02-21T04:13:09;7.30;;;3.35;;
40537;SDS011;27925;41.874;12.526;2024-02-21T04:15:35;7.43;;;3.50;;
40537;SDS011;27925;41.874;12.526;2024-02-21T04:18:01;6.03;;;3.38;;
40537;SDS011;27925;41.874;12.526;2024-02-21T04:20:28;6.20;;;3.65;;
40537;SDS011;27925;41.874;12.526;2024-02-21T04:22:54;7.38;;;3.97;;
40537;SDS011;27925;41.874;12.526;2024-02-21T04:25:20;8.10;;;3.90;;
40537;SDS011;27925;41.874;12.526;2024-02-21T04:27:46;6.43;;;4.20;;
40537;SDS011;27925;41.874;12.526;2024-02-21T04:30:12;6.07;;;4.00;;
40537;SDS011;27925;41.874;12.526;2024-02-21T04:32:38;6.10;;;3.83;;
40537;SDS011;27925;41.874;12.526;2024-02-21T04:35:04;6.10;;;3.40;;
40537;SDS011;27925;41.874;12.526;2024-02-21T04:37:30;6.85;;;3.95;;
40537;SDS011;27925;41.874;12.526;2024-02-21T04:39:56;6.75;;;3.75;;
40537;SDS011;27925;41.874;12.526;2024-02-21T04:42:22;5.85;;;3.42;;
40537;SDS011;27925;41.874;12.526;2024-02-21T04:44:47;5.63;;;3.03;;
40537;SDS011;27925;41.874;12.526;2024-02-21T04:47:13;5.55;;;3.47;;
40537;SDS011;27925;41.874;12.526;2024-02-21T04:49:39;7.13;;;3.22;;
40537;SDS011;27925;41.874;12.526;2024-02-21T04:52:05;4.93;;;2.95;;
40537;SDS011;27925;41.874;12.526;2024-02-21T04:54:31;5.30;;;2.90;;
40537;SDS011;27925;41.874;12.526;2024-02-21T04:56:56;5.55;;;2.88;;
40537;SDS011;27925;41.874;12.526;2024-02-21T04:59:22;5.47;;;2.83;;
40537;SDS011;27925;41.874;12.526;2024-02-21T05:01:48;11.35;;;3.25;;
40537;SDS011;27925;41.874;12.526;2024-02-21T05:04:13;5.13;;;2.70;;
40537;SDS011;27925;41.874;12.526;2024-02-21T05:06:39;5.65;;;2.63;;
40537;SDS011;27925;41.874;12.526;2024-02-21T05:09:06;6.78;;;3.70;;
40537;SDS011;27925;41.874;12.526;2024-02-21T05:11:35;5.57;;;2.95;;
40537;SDS011;27925;41.874;12.526;2024-02-21T05:14:02;5.82;;;3.25;;
40537;SDS011;27925;41.874;12.526;2024-02-21T05:16:29;6.35;;;3.42;;
40537;SDS011;27925;41.874;12.526;2024-02-21T05:18:55;5.30;;;2.95;;
40537;SDS011;27925;41.874;12.526;2024-02-21T05:21:25;7.30;;;3.13;;
40537;SDS011;27925;41.874;12.526;2024-02-21T05:23:51;5.70;;;3.17;;
40537;SDS011;27925;41.874;12.526;2024-02-21T05:26:23;6.57;;;2.97;;
40537;SDS011;27925;41.874;12.526;2024-02-21T05:28:49;5.80;;;2.72;;
40537;SDS011;27925;41.874;12.526;2024-02-21T05:31:16;6.70;;;3.13;;
40537;SDS011;27925;41.874;12.526;2024-02-21T05:33:45;6.53;;;2.85;;
40537;SDS011;27925;41.874;12.526;2024-02-21T05:36:14;7.63;;;2.88;;
40537;SDS011;27925;41.874;12.526;2024-02-21T05:38:39;6.25;;;3.15;;
40537;SDS011;27925;41.874;12.526;2024-02-21T05:41:05;4.57;;;2.75;;
40537;SDS011;27925;41.874;12.526;2024-02-21T05:43:31;9.45;;;3.08;;
40537;SDS011;27925;41.874;12.526;2024-02-21T05:45:57;5.55;;;3.17;;
40537;SDS011;27925;41.874;12.526;2024-02-21T05:48:23;5.28;;;2.83;;
40537;SDS011;27925;41.874;12.526;2024-02-21T05:50:49;5.15;;;2.95;;
40537;SDS011;27925;41.874;12.526;2024-02-21T05:53:15;6.75;;;3.30;;
40537;SDS011;27925;41.874;12.526;2024-02-21T05:55:41;6.00;;;2.92;;
40537;SDS011;27925;41.874;12.526;2024-02-21T05:58:06;5.93;;;3.22;;
40537;SDS011;27925;41.874;12.526;2024-02-21T06:00:35;7.45;;;3.15;;
40537;SDS011;27925;41.874;12.526;2024-02-21T06:03:01;5.75;;;2.95;;
40537;SDS011;27925;41.874;12.526;2024-02-21T06:05:27;7.28;;;3.33;;
40537;SDS011;27925;41.874;12.526;2024-02-21T06:07:53;5.78;;;3.20;;
40537;SDS011;27925;41.874;12.526;2024-02-21T06:10:18;5.95;;;3.38;;
40537;SDS011;27925;41.874;12.526;2024-02-21T06:12:44;5.38;;;2.83;;
40537;SDS011;27925;41.874;12.526;2024-02-21T06:15:10;5.03;;;2.83;;
40537;SDS011;27925;41.874;12.526;2024-02-21T06:17:35;8.23;;;3.60;;
40537;SDS011;27925;41.874;12.526;2024-02-21T06:20:01;5.75;;;3.22;;
40537;SDS011;27925;41.874;12.526;2024-02-21T06:22:27;7.50;;;4.00;;
40537;SDS011;27925;41.874;12.526;2024-02-21T06:24:52;7.43;;;3.80;;
40537;SDS011;27925;41.874;12.526;2024-02-21T06:27:19;6.38;;;3.63;;
40537;SDS011;27925;41.874;12.526;2024-02-21T06:29:45;7.47;;;3.38;;
40537;SDS011;27925;41.874;12.526;2024-02-21T06:32:11;5.50;;;3.10;;
40537;SDS011;27925;41.874;12.526;2024-02-21T06:34:36;9.13;;;3.38;;
40537;SDS011;27925;41.874;12.526;2024-02-21T06:37:02;6.68;;;3.03;;
40537;SDS011;27925;41.874;12.526;2024-02-21T06:39:29;6.28;;;3.33;;
40537;SDS011;27925;41.874;12.526;2024-02-21T06:41:55;8.18;;;3.15;;
40537;SDS011;27925;41.874;12.526;2024-02-21T06:44:21;6.30;;;3.70;;
40537;SDS011;27925;41.874;12.526;2024-02-21T06:46:47;9.07;;;3.63;;
40537;SDS011;27925;41.874;12.526;2024-02-21T06:49:12;12.45;;;3.88;;
40537;SDS011;27925;41.874;12.526;2024-02-21T06:51:41;7.50;;;3.47;;
40537;SDS011;27925;41.874;12.526;2024-02-21T06:54:08;5.50;;;3.55;;
40537;SDS011;27925;41.874;12.526;2024-02-21T06:56:34;7.72;;;3.88;;
40537;SDS011;27925;41.874;12.526;2024-02-21T06:59:00;7.82;;;3.30;;
40537;SDS011;27925;41.874;12.526;2024-02-21T07:01:26;7.85;;;3.65;;
40537;SDS011;27925;41.874;12.526;2024-02-21T07:03:52;5.90;;;3.22;;
40537;SDS011;27925;41.874;12.526;2024-02-21T07:06:18;8.43;;;3.15;;
40537;SDS011;27925;41.874;12.526;2024-02-21T07:08:43;6.75;;;3.33;;
40537;SDS011;27925;41.874;12.526;2024-02-21T07:11:09;6.47;;;3.28;;
40537;SDS011;27925;41.874;12.526;2024-02-21T07:13:35;6.93;;;3.42;;
40537;SDS011;27925;41.874;12.526;2024-02-21T07:16:01;9.68;;;3.22;;
40537;SDS011;27925;41.874;12.526;2024-02-21T07:18:27;5.85;;;2.97;;
40537;SDS011;27925;41.874;12.526;2024-02-21T07:20:52;5.75;;;3.35;;
40537;SDS011;27925;41.874;12.526;2024-02-21T07:23:18;8.02;;;3.45;;
40537;SDS011;27925;41.874;12.526;2024-02-21T07:25:44;6.78;;;3.20;;
40537;SDS011;27925;41.874;12.526;2024-02-21T07:28:10;5.70;;;3.10;;
40537;SDS011;27925;41.874;12.526;2024-02-21T07:30:36;5.63;;;3.20;;
40537;SDS011;27925;41.874;12.526;2024-02-21T07:33:01;6.55;;;3.40;;
40537;SDS011;27925;41.874;12.526;2024-02-21T07:35:27;8.98;;;3.70;;
40537;SDS011;27925;41.874;12.526;2024-02-21T07:37:53;8.00;;;3.47;;
40537;SDS011;27925;41.874;12.526;2024-02-21T07:40:19;7.93;;;3.85;;
40537;SDS011;27925;41.874;12.526;2024-02-21T07:42:44;8.73;;;3.75;;
40537;SDS011;27925;41.874;12.526;2024-02-21T07:45:10;7.97;;;3.47;;
40537;SDS011;27925;41.874;12.526;2024-02-21T07:47:36;9.85;;;3.78;;
40537;SDS011;27925;41.874;12.526;2024-02-21T07:50:03;6.80;;;3.55;;
40537;SDS011;27925;41.874;12.526;2024-02-21T07:52:29;8.73;;;3.42;;
40537;SDS011;27925;41.874;12.526;2024-02-21T07:54:55;6.28;;;3.20;;
40537;SDS011;27925;41.874;12.526;2024-02-21T07:57:21;5.97;;;3.55;;
40537;SDS011;27925;41.874;12.526;2024-02-21T07:59:47;6.70;;;3.25;;
40537;SDS011;27925;41.874;12.526;2024-02-21T08:02:13;10.32;;;3.97;;
40537;SDS011;27925;41.874;12.526;2024-02-21T08:04:39;6.82;;;3.67;;
40537;SDS011;27925;41.874;12.526;2024-02-21T08:07:05;7.50;;;3.83;;
40537;SDS011;27925;41.874;12.526;2024-02-21T08:09:31;11.70;;;7.47;;
40537;SDS011;27925;41.874;12.526;2024-02-21T08:11:56;12.98;;;8.32;;
40537;SDS011;27925;41.874;12.526;2024-02-21T08:14:22;10.45;;;5.65;;
40537;SDS011;27925;41.874;12.526;2024-02-21T08:16:49;9.73;;;5.13;;
40537;SDS011;27925;41.874;12.526;2024-02-21T08:19:16;11.63;;;4.53;;
40537;SDS011;27925;41.874;12.526;2024-02-21T08:21:42;13.60;;;4.93;;
40537;SDS011;27925;41.874;12.526;2024-02-21T08:24:08;7.65;;;5.28;;
40537;SDS011;27925;41.874;12.526;2024-02-21T08:26:35;11.93;;;8.48;;
40537;SDS011;27925;41.874;12.526;2024-02-21T08:29:09;16.38;;;9.25;;
40537;SDS011;27925;41.874;12.526;2024-02-21T08:31:36;21.58;;;15.63;;
40537;SDS011;27925;41.874;12.526;2024-02-21T08:34:02;17.83;;;12.20;;
40537;SDS011;27925;41.874;12.526;2024-02-21T08:36:35;19.85;;;13.35;;
40537;SDS011;27925;41.874;12.526;2024-02-21T08:39:01;19.75;;;14.00;;
40537;SDS011;27925;41.874;12.526;2024-02-21T08:41:31;11.65;;;6.88;;
40537;SDS011;27925;41.874;12.526;2024-02-21T08:43:57;15.13;;;9.50;;
40537;SDS011;27925;41.874;12.526;2024-02-21T08:46:23;13.77;;;8.85;;
40537;SDS011;27925;41.874;12.526;2024-02-21T08:48:52;12.82;;;5.75;;
40537;SDS011;27925;41.874;12.526;2024-02-21T08:51:18;7.53;;;4.53;;
40537;SDS011;27925;41.874;12.526;2024-02-21T08:53:45;6.85;;;3.92;;
40537;SDS011;27925;41.874;12.526;2024-02-21T08:56:12;6.28;;;3.60;;
40537;SDS011;27925;41.874;12.526;2024-02-21T08:58:38;7.25;;;4.15;;
40537;SDS011;27925;41.874;12.526;2024-02-21T09:01:05;6.15;;;2.83;;
40537;SDS011;27925;41.874;12.526;2024-02-21T09:03:37;5.70;;;3.38;;
40537;SDS011;27925;41.874;12.526;2024-02-21T09:06:03;7.25;;;3.60;;
40537;SDS011;27925;41.874;12.526;2024-02-21T09:08:30;6.40;;;3.05;;
40537;SDS011;27925;41.874;12.526;2024-02-21T09:10:56;6.35;;;3.53;;
40537;SDS011;27925;41.874;12.526;2024-02-21T09:13:21;8.80;;;3.58;;
40537;SDS011;27925;41.874;12.526;2024-02-21T09:15:48;8.45;;;3.35;;
40537;SDS011;27925;41.874;12.526;2024-02-21T09:18:14;8.52;;;3.85;;
40537;SDS011;27925;41.874;12.526;2024-02-21T09:20:41;10.27;;;3.20;;
40537;SDS011;27925;41.874;12.526;2024-02-21T09:23:07;4.85;;;2.90;;
40537;SDS011;27925;41.874;12.526;2024-02-21T09:25:33;7.50;;;3.55;;
40537;SDS011;27925;41.874;12.526;2024-02-21T09:28:00;7.93;;;3.30;;
40537;SDS011;27925;41.874;12.526;2024-02-21T09:30:27;5.50;;;2.85;;
40537;SDS011;27925;41.874;12.526;2024-02-21T09:32:53;9.32;;;3.65;;
40537;SDS011;27925;41.874;12.526;2024-02-21T09:35:19;8.88;;;3.30;;
40537;SDS011;27925;41.874;12.526;2024-02-21T09:37:47;5.75;;;2.80;;
40537;SDS011;27925;41.874;12.526;2024-02-21T09:40:14;6.68;;;2.75;;
40537;SDS011;27925;41.874;12.526;2024-02-21T09:42:42;5.25;;;2.80;;
40537;SDS011;27925;41.874;12.526;2024-02-21T09:45:14;9.10;;;3.03;;
40537;SDS011;27925;41.874;12.526;2024-02-21T09:47:57;6.82;;;2.78;;
40537;SDS011;27925;41.874;12.526;2024-02-21T09:50:50;5.40;;;2.70;;
40537;SDS011;27925;41.874;12.526;2024-02-21T09:53:18;6.57;;;2.92;;
40537;SDS011;27925;41.874;12.526;2024-02-21T09:55:44;6.28;;;2.92;;
40537;SDS011;27925;41.874;12.526;2024-02-21T09:58:11;5.88;;;2.95;;
40537;SDS011;27925;41.874;12.526;2024-02-21T10:00:38;5.93;;;2.65;;
40537;SDS011;27925;41.874;12.526;2024-02-21T10:03:04;5.22;;;2.63;;
40537;SDS011;27925;41.874;12.526;2024-02-21T10:05:35;4.53;;;2.33;;
40537;SDS011;27925;41.874;12.526;2024-02-21T10:08:02;5.78;;;2.38;;
40537;SDS011;27925;41.874;12.526;2024-02-21T10:10:29;9.45;;;2.95;;
40537;SDS011;27925;41.874;12.526;2024-02-21T10:12:55;8.27;;;2.70;;
40537;SDS011;27925;41.874;12.526;2024-02-21T10:15:23;4.05;;;2.15;;
40537;SDS011;27925;41.874;12.526;2024-02-21T10:17:59;5.18;;;2.35;;
40537;SDS011;27925;41.874;12.526;2024-02-21T10:20:28;5.70;;;2.75;;
40537;SDS011;27925;41.874;12.526;2024-02-21T10:23:04;6.30;;;2.80;;
40537;SDS011;27925;41.874;12.526;2024-02-21T10:25:33;7.68;;;2.88;;
40537;SDS011;27925;41.874;12.526;2024-02-21T10:28:00;6.43;;;2.65;;
40537;SDS011;27925;41.874;12.526;2024-02-21T10:30:29;5.13;;;2.72;;
40537;SDS011;27925;41.874;12.526;2024-02-21T10:32:55;8.80;;;2.97;;
40537;SDS011;27925;41.874;12.526;2024-02-21T10:37:54;12.93;;;3.55;;
40537;SDS011;27925;41.874;12.526;2024-02-21T10:40:22;11.57;;;3.40;;
40537;SDS011;27925;41.874;12.526;2024-02-21T10:42:49;11.80;;;3.33;;
40537;SDS011;27925;41.874;12.526;2024-02-21T10:45:21;8.45;;;3.50;;
40537;SDS011;27925;41.874;12.526;2024-02-21T10:47:50;9.57;;;2.97;;
40537;SDS011;27925;41.874;12.526;2024-02-21T10:50:20;7.15;;;2.97;;
40537;SDS011;27925;41.874;12.526;2024-02-21T10:52:58;5.63;;;2.60;;
40537;SDS011;27925;41.874;12.526;2024-02-21T10:55:38;9.05;;;2.47;;
40537;SDS011;27925;41.874;12.526;2024-02-21T10:58:06;6.57;;;2.65;;
40537;SDS011;27925;41.874;12.526;2024-02-21T11:00:34;7.78;;;3.03;;
40537;SDS011;27925;41.874;12.526;2024-02-21T11:03:01;8.75;;;2.92;;
40537;SDS011;27925;41.874;12.526;2024-02-21T11:05:28;5.15;;;2.50;;
40537;SDS011;27925;41.874;12.526;2024-02-21T11:07:54;6.32;;;2.42;;
40537;SDS011;27925;41.874;12.526;2024-02-21T11:10:24;5.38;;;2.05;;
40537;SDS011;27925;41.874;12.526;2024-02-21T11:12:54;9.70;;;2.75;;
40537;SDS011;27925;41.874;12.526;2024-02-21T11:15:34;3.92;;;1.90;;
40537;SDS011;27925;41.874;12.526;2024-02-21T11:18:00;5.82;;;2.00;;
40537;SDS011;27925;41.874;12.526;2024-02-21T11:20:33;4.45;;;1.90;;
40537;SDS011;27925;41.874;12.526;2024-02-21T11:23:00;4.38;;;2.20;;
40537;SDS011;27925;41.874;12.526;2024-02-21T11:25:26;4.38;;;2.13;;
40537;SDS011;27925;41.874;12.526;2024-02-21T11:28:00;4.65;;;2.20;;
40537;SDS011;27925;41.874;12.526;2024-02-21T11:30:27;6.25;;;2.45;;
40537;SDS011;27925;41.874;12.526;2024-02-21T11:32:59;4.10;;;1.88;;
40537;SDS011;27925;41.874;12.526;2024-02-21T11:35:26;4.70;;;2.10;;
40537;SDS011;27925;41.874;12.526;2024-02-21T11:38:07;11.57;;;2.75;;
40537;SDS011;27925;41.874;12.526;2024-02-21T11:40:39;7.88;;;2.22;;
40537;SDS011;27925;41.874;12.526;2024-02-21T11:43:06;7.00;;;2.20;;
40537;SDS011;27925;41.874;12.526;2024-02-21T11:45:32;6.25;;;1.83;;
40537;SDS011;27925;41.874;12.526;2024-02-21T11:47:59;5.68;;;1.80;;
40537;SDS011;27925;41.874;12.526;2024-02-21T11:50:29;6.53;;;2.40;;
40537;SDS011;27925;41.874;12.526;2024-02-21T11:52:55;6.63;;;1.80;;
40537;SDS011;27925;41.874;12.526;2024-02-21T11:55:22;3.92;;;2.10;;
40537;SDS011;27925;41.874;12.526;2024-02-21T11:57:48;4.20;;;1.80;;
40537;SDS011;27925;41.874;12.526;2024-02-21T12:00:14;6.75;;;2.38;;
40537;SDS011;27925;41.874;12.526;2024-02-21T12:02:41;4.00;;;1.70;;
40537;SDS011;27925;41.874;12.526;2024-02-21T12:05:11;7.47;;;2.30;;
40537;SDS011;27925;41.874;12.526;2024-02-21T12:07:37;3.53;;;1.73;;
40537;SDS011;27925;41.874;12.526;2024-02-21T12:10:15;4.18;;;1.50;;
40537;SDS011;27925;41.874;12.526;2024-02-21T12:12:40;2.88;;;1.30;;
40537;SDS011;27925;41.874;12.526;2024-02-21T12:15:07;4.22;;;1.50;;
40537;SDS011;27925;41.874;12.526;2024-02-21T12:17:33;8.23;;;2.28;;
40537;SDS011;27925;41.874;12.526;2024-02-21T12:20:00;4.93;;;1.75;;
40537;SDS011;27925;41.874;12.526;2024-02-21T12:22:29;5.68;;;1.95;;
40537;SDS011;27925;41.874;12.526;2024-02-21T12:24:57;6.13;;;1.60;;
40537;SDS011;27925;41.874;12.526;2024-02-21T12:27:23;3.42;;;1.60;;
40537;SDS011;27925;41.874;12.526;2024-02-21T12:29:50;3.10;;;1.52;;
40537;SDS011;27925;41.874;12.526;2024-02-21T12:32:15;2.88;;;1.40;;
40537;SDS011;27925;41.874;12.526;2024-02-21T12:34:41;2.42;;;1.40;;
40537;SDS011;27925;41.874;12.526;2024-02-21T12:37:07;3.35;;;1.55;;
40537;SDS011;27925;41.874;12.526;2024-02-21T12:39:34;2.58;;;1.35;;
40537;SDS011;27925;41.874;12.526;2024-02-21T12:41:59;3.22;;;1.50;;
40537;SDS011;27925;41.874;12.526;2024-02-21T12:44:25;2.45;;;1.27;;
40537;SDS011;27925;41.874;12.526;2024-02-21T12:46:51;4.10;;;2.00;;
40537;SDS011;27925;41.874;12.526;2024-02-21T12:49:18;6.10;;;2.13;;
40537;SDS011;27925;41.874;12.526;2024-02-21T12:51:44;4.53;;;1.67;;
40537;SDS011;27925;41.874;12.526;2024-02-21T12:54:13;2.53;;;1.35;;
40537;SDS011;27925;41.874;12.526;2024-02-21T12:56:39;4.30;;;1.60;;
40537;SDS011;27925;41.874;12.526;2024-02-21T12:59:05;3.50;;;1.50;;
40537;SDS011;27925;41.874;12.526;2024-02-21T13:01:34;4.15;;;1.40;;
40537;SDS011;27925;41.874;12.526;2024-02-21T13:04:01;11.32;;;1.98;;
40537;SDS011;27925;41.874;12.526;2024-02-21T13:06:26;10.27;;;1.95;;
40537;SDS011;27925;41.874;12.526;2024-02-21T13:08:53;5.97;;;1.67;;
40537;SDS011;27925;41.874;12.526;2024-02-21T13:11:18;4.47;;;1.50;;
40537;SDS011;27925;41.874;12.526;2024-02-21T13:13:44;3.28;;;1.88;;
40537;SDS011;27925;41.874;12.526;2024-02-21T13:16:10;2.85;;;1.48;;
40537;SDS011;27925;41.874;12.526;2024-02-21T13:18:36;4.25;;;1.67;;
40537;SDS011;27925;41.874;12.526;2024-02-21T13:21:05;2.50;;;1.30;;
40537;SDS011;27925;41.874;12.526;2024-02-21T13:23:31;4.10;;;1.38;;
40537;SDS011;27925;41.874;12.526;2024-02-21T13:25:57;4.82;;;1.70;;
40537;SDS011;27925;41.874;12.526;2024-02-21T13:28:22;3.50;;;1.75;;
40537;SDS011;27925;41.874;12.526;2024-02-21T13:30:48;2.20;;;1.10;;
40537;SDS011;27925;41.874;12.526;2024-02-21T13:33:14;2.40;;;1.20;;
40537;SDS011;27925;41.874;12.526;2024-02-21T13:35:39;2.72;;;1.40;;
40537;SDS011;27925;41.874;12.526;2024-02-21T13:38:05;4.13;;;1.20;;
40537;SDS011;27925;41.874;12.526;2024-02-21T13:40:31;5.05;;;2.15;;
40537;SDS011;27925;41.874;12.526;2024-02-21T13:42:56;1.88;;;1.23;;
40537;SDS011;27925;41.874;12.526;2024-02-21T13:45:22;3.83;;;1.88;;
40537;SDS011;27925;41.874;12.526;2024-02-21T13:47:48;3.47;;;1.73;;
40537;SDS011;27925;41.874;12.526;2024-02-21T13:50:14;5.93;;;1.70;;
40537;SDS011;27925;41.874;12.526;2024-02-21T13:52:40;2.88;;;1.65;;
40537;SDS011;27925;41.874;12.526;2024-02-21T13:55:06;5.53;;;1.80;;
40537;SDS011;27925;41.874;12.526;2024-02-21T13:57:38;2.88;;;1.30;;
40537;SDS011;27925;41.874;12.526;2024-02-21T14:00:04;5.25;;;1.70;;
40537;SDS011;27925;41.874;12.526;2024-02-21T14:02:30;4.55;;;1.40;;
40537;SDS011;27925;41.874;12.526;2024-02-21T14:04:56;3.03;;;1.60;;
40537;SDS011;27925;41.874;12.526;2024-02-21T14:07:22;3.38;;;1.58;;
40537;SDS011;27925;41.874;12.526;2024-02-21T14:09:48;5.28;;;1.70;;
40537;SDS011;27925;41.874;12.526;2024-02-21T14:12:13;3.70;;;1.63;;
40537;SDS011;27925;41.874;12.526;2024-02-21T14:14:41;8.23;;;2.08;;
40537;SDS011;27925;41.874;12.526;2024-02-21T14:17:09;4.47;;;1.52;;
40537;SDS011;27925;41.874;12.526;2024-02-21T14:19:34;4.22;;;1.77;;
40537;SDS011;27925;41.874;12.526;2024-02-21T14:22:00;4.80;;;1.67;;
40537;SDS011;27925;41.874;12.526;2024-02-21T14:24:27;3.45;;;1.75;;
40537;SDS011;27925;41.874;12.526;2024-02-21T14:26:53;4.50;;;1.90;;
40537;SDS011;27925;41.874;12.526;2024-02-21T14:29:19;8.40;;;1.48;;
40537;SDS011;27925;41.874;12.526;2024-02-21T14:31:46;5.90;;;1.88;;